Nearby METAR Reports

 

EGQL - Leuchars Raf, United Kingdom
Distance from station: SW 11mi, 17km
Updated: 18/11/2017 16:50
Clear
Clear
 Wind from SSW
Wind: SSW 12 mph , 19 km/h
Temperature: 4°C
Wind Chill: 0°C
Dew Point: -2°C
Humidity: 65%
Barometer: 1017 hPa
Summary: Clear
Visibility: greater than 7 miles , 10 km
2017/11/18 16:50 EGQL 181650Z 21010KT CAVOK 04/M02 Q1017 BLU
EGPN - Dundee/Riverside, United Kingdom
Distance from station: WSW 13mi, 20km
Updated: 18/11/2017 15:50
NOT Current
Few Clouds
Few Clouds
 Wind from WSW
Wind: WSW 16 mph , 26 km/h
Temperature: 7°C
Wind Chill: 3°C
Dew Point: 0°C
Humidity: 61%
Barometer: 1017 hPa
Clouds: Few Clouds
Visibility: 6 miles , 10 km
Cloud details: Few Clouds 1219 m
2017/11/18 15:50 EGPN 181550Z 25014KT 9999 FEW040 07/M00 Q1017
 
EGPH - Edinburgh Airpor, United Kingdom
Distance from station: SSW 46mi, 74km
Updated: 18/11/2017 16:50
Clear
Clear
 Wind from WSW
Wind: WSW 5 mph , 7 km/h
Temperature: 3°C
Wind Chill: 1°C
Dew Point: -1°C
Humidity: 75%
Barometer: 1018 hPa
Summary: Clear
Visibility: greater than 7 miles , 10 km
2017/11/18 16:50 EGPH 181650Z 25004KT CAVOK 03/M01 Q1018
EGPD - Aberdeen/Dyce, United Kingdom
Distance from station: NNE 51mi, 82km
Updated: 18/11/2017 16:50
Light rain, Showers, Nearby showers, Few clouds
Light rain, Showers, Nearby showers, Few clouds
 Wind from WNW
Wind: WNW 22 mph , 35 km/h
Temperature: 4°C
Wind Chill: -2°C
Dew Point: 0°C
Humidity: 75%
Barometer: 1014 hPa
Summary: Light rain, Showers, Nearby showers
Clouds: Few Clouds
Visibility: 6 miles , 10 km
Cloud details: Few Clouds 549 m
Few Clouds 853 m
2017/11/18 16:50 EGPD 181650Z 30019KT 9999 -SHRA VCSH FEW018CB FEW028 04/00 Q1014